Latest Weather Observations for Wattamolla

IDN60801

Issued at 3:32 pm EDT Saturday 13 February 2016 (issued every 30 minutes, with the page automatically refreshed every 10 minutes)

About weather observations | Map of weather stations | Latest weather observations for NSW | Other Formats
Station Details ID: 066208 Name: WATTAMOLLA AWS Lat: -34.14 Lon: 151.12 Height: 44.0 m
Data from the previous 72 hours. | See also: Recent months for locations in New South Wales
Date/Time
EDT
Temp
°C
App
Temp
°C
Dew
Point
Rel
Hum
%
Delta-T
°C
Wind Press
QNH
hPa
Press
MSL
hPa
Rain
since 9 am
mm
Dir
 
Spd
km/h
Gust
km/h
Spd
kts
Gust
kts
13/03:30pm - - - - - NE 28 39 15 21 - - -
13/03:00pm - - - - - NE 30 41 16 22 - - -
13/02:30pm - - - - - NE 28 37 15 20 - - -
13/02:00pm - - - - - NE 28 39 15 21 - - -
13/01:30pm - - - - - NE 30 39 16 21 - - -
13/01:00pm - - - - - NE 30 39 16 21 - - -
13/12:30pm - - - - - NE 28 35 15 19 - - -
13/12:00pm - - - - - NE 26 39 14 21 - - -
13/11:30am - - - - - NE 22 37 12 20 - - -
13/11:00am - - - - - N 17 30 9 16 - - -
13/10:30am - - - - - N 20 26 11 14 - - -
13/10:00am - - - - - N 20 30 11 16 - - -
13/09:30am - - - - - N 19 26 10 14 - - -
13/09:00am - - - - - N 19 26 10 14 - - -
13/08:30am - - - - - NNW 15 20 8 11 - - -
13/08:00am - - - - - NNW 11 15 6 8 - - -
13/07:30am - - - - - NNW 11 15 6 8 - - -
13/07:00am - - - - - NNW 13 15 7 8 - - -
13/06:30am - - - - - N 15 17 8 9 - - -
13/06:00am - - - - - NNW 15 17 8 9 - - -
13/05:30am - - - - - N 13 15 7 8 - - -
13/05:00am - - - - - N 13 13 7 7 - - -
13/04:30am - - - - - NNW 11 13 6 7 - - -
13/04:00am - - - - - NNW 13 17 7 9 - - -
13/03:30am - - - - - NNW 11 13 6 7 - - -
13/03:00am - - - - - NNW 13 15 7 8 - - -
13/02:30am - - - - - NNW 13 13 7 7 - - -
13/02:00am - - - - - N 11 13 6 7 - - -
13/01:30am - - - - - N 13 17 7 9 - - -
13/01:00am - - - - - N 13 17 7 9 - - -
13/12:30am - - - - - N 17 24 9 13 - - -
13/12:00am - - - - - N 15 19 8 10 - - -
 
Date/Time
EDT
Temp
°C
App
Temp
°C
Dew
Point
Rel
Hum
%
Delta-T
°C
Wind Press
QNH
hPa
Press
MSL
hPa
Rain
since 9 am
mm
Dir
 
Spd
km/h
Gust
km/h
Spd
kts
Gust
kts
12/11:30pm - - - - - NNE 19 26 10 14 - - -
12/11:00pm - - - - - NNE 20 28 11 15 - - -
12/10:30pm - - - - - NNE 19 26 10 14 - - -
12/10:00pm - - - - - NNE 26 37 14 20 - - -
12/09:30pm - - - - - NE 26 33 14 18 - - -
12/09:00pm - - - - - NE 24 33 13 18 - - -
12/08:30pm - - - - - NNE 22 30 12 16 - - -
12/08:00pm - - - - - NNE 20 30 11 16 - - -
12/07:30pm - - - - - NE 22 33 12 18 - - -
12/07:00pm - - - - - NE 22 33 12 18 - - -
12/06:30pm - - - - - NE 20 32 11 17 - - -
12/06:00pm - - - - - NE 19 26 10 14 - - -
12/05:30pm - - - - - NE 17 28 9 15 - - -
12/05:00pm - - - - - NE 19 26 10 14 - - -
12/04:30pm - - - - - NE 19 28 10 15 - - -
12/04:00pm - - - - - ENE 19 28 10 15 - - -
12/03:30pm - - - - - ENE 19 28 10 15 - - -
12/03:00pm - - - - - ENE 20 30 11 16 - - -
12/02:30pm - - - - - ENE 20 30 11 16 - - -
12/02:00pm - - - - - - - - - - - - -
12/01:30pm - - - - - ENE 17 26 9 14 - - -
12/01:00pm - - - - - ENE 17 24 9 13 - - -
12/12:30pm - - - - - ESE 11 15 6 8 - - -
12/12:00pm - - - - - SE 15 17 8 9 - - -
12/11:30am - - - - - SE 13 19 7 10 - - -
12/11:00am - - - - - SSE 15 17 8 9 - - -
12/10:30am - - - - - SSE 13 17 7 9 - - -
12/10:00am - - - - - SSE 11 15 6 8 - - -
12/09:30am - - - - - SE 11 15 6 8 - - -
12/09:00am - - - - - NW 11 15 6 8 - - -
12/08:30am - - - - - WNW 7 11 4 6 - - -
12/08:00am - - - - - NW 11 13 6 7 - - -
12/07:30am - - - - - NW 9 13 5 7 - - -
12/07:00am - - - - - WNW 9 13 5 7 - - -
12/06:30am - - - - - W 7 9 4 5 - - -
12/06:00am - - - - - WNW 9 11 5 6 - - -
12/05:30am - - - - - NW 9 11 5 6 - - -
12/05:00am - - - - - NW 7 7 4 4 - - -
12/04:30am - - - - - NW 9 9 5 5 - - -
12/04:00am - - - - - NW 11 13 6 7 - - -
12/03:30am - - - - - NW 7 11 4 6 - - -
12/03:00am - - - - - NW 9 11 5 6 - - -
12/02:30am - - - - - NW 9 11 5 6 - - -
12/02:00am - - - - - NW 7 9 4 5 - - -
12/01:30am - - - - - WNW 11 13 6 7 - - -
12/01:00am - - - - - NW 9 11 5 6 - - -
12/12:30am - - - - - NNW 9 11 5 6 - - -
12/12:00am - - - - - N 13 15 7 8 - - -
 
Date/Time
EDT
Temp
°C
App
Temp
°C
Dew
Point
Rel
Hum
%
Delta-T
°C
Wind Press
QNH
hPa
Press
MSL
hPa
Rain
since 9 am
mm
Dir
 
Spd
km/h
Gust
km/h
Spd
kts
Gust
kts
11/11:30pm - - - - - N 13 15 7 8 - - -
11/11:00pm - - - - - N 11 15 6 8 - - -
11/10:30pm - - - - - N 11 15 6 8 - - -
11/10:00pm - - - - - NE 15 20 8 11 - - -
11/09:30pm - - - - - NE 13 17 7 9 - - -
11/09:00pm - - - - - NE 17 22 9 12 - - -
11/08:30pm - - - - - ENE 15 20 8 11 - - -
11/08:00pm - - - - - ENE 17 24 9 13 - - -
11/07:30pm - - - - - ENE 15 19 8 10 - - -
11/07:00pm - - - - - E 15 24 8 13 - - -
11/06:30pm - - - - - E 13 22 7 12 - - -
11/06:00pm - - - - - E 13 19 7 10 - - -
11/05:30pm - - - - - E 13 17 7 9 - - -
11/05:00pm - - - - - ESE 11 19 6 10 - - -
11/04:30pm - - - - - ESE 13 19 7 10 - - -
11/04:00pm - - - - - E 13 19 7 10 - - -
11/03:30pm - - - - - E 15 20 8 11 - - -
11/03:00pm - - - - - ENE 17 24 9 13 - - -
11/02:30pm - - - - - E 15 19 8 10 - - -
11/02:00pm - - - - - ESE 13 19 7 10 - - -
11/01:30pm - - - - - ESE 13 19 7 10 - - -
11/01:00pm - - - - - E 13 19 7 10 - - -
11/12:30pm - - - - - E 13 17 7 9 - - -
11/12:00pm - - - - - E 11 15 6 8 - - -
11/11:30am - - - - - ESE 9 15 5 8 - - -
11/11:00am - - - - - E 11 13 6 7 - - -
11/10:30am - - - - - ESE 9 13 5 7 - - -
11/10:00am - - - - - ESE 7 13 4 7 - - -
11/09:30am - - - - - ESE 11 15 6 8 - - -
11/09:00am - - - - - NNE 6 15 3 8 - - -
11/08:30am - - - - - N 9 15 5 8 - - -
11/08:00am - - - - - WNW 9 11 5 6 - - -
11/07:30am - - - - - NW 13 15 7 8 - - -
11/07:00am - - - - - NW 15 17 8 9 - - -
11/06:30am - - - - - NW 15 17 8 9 - - -
11/06:00am - - - - - NW 15 17 8 9 - - -
11/05:30am - - - - - NW 15 15 8 8 - - -
11/05:00am - - - - - NW 15 17 8 9 - - -
11/04:30am - - - - - NW 17 17 9 9 - - -
11/04:00am - - - - - NW 15 17 8 9 - - -
11/03:30am - - - - - NNW 15 17 8 9 - - -
11/03:00am - - - - - NNW 13 15 7 8 - - -
11/02:30am - - - - - NNW 13 15 7 8 - - -
11/02:00am - - - - - NNW 13 15 7 8 - - -
11/01:30am - - - - - NNW 11 15 6 8 - - -
11/01:00am - - - - - N 13 17 7 9 - - -
11/12:30am - - - - - N 13 17 7 9 - - -
11/12:00am - - - - - N 11 17 6 9 - - -
 
Date/Time
EDT
Temp
°C
App
Temp
°C
Dew
Point
Rel
Hum
%
Delta-T
°C
Wind Press
QNH
hPa
Press
MSL
hPa
Rain
since 9 am
mm
Dir
 
Spd
km/h
Gust
km/h
Spd
kts
Gust
kts
10/11:30pm - - - - - N 17 24 9 13 - - -
10/11:00pm - - - - - N 22 30 12 16 - - -
10/10:30pm - - - - - NNE 20 30 11 16 - - -
10/10:00pm - - - - - NNE 22 30 12 16 - - -
10/09:30pm - - - - - NNE 24 35 13 19 - - -
10/09:00pm - - - - - NNE 24 33 13 18 - - -
10/08:30pm - - - - - NNE 24 32 13 17 - - -
10/08:00pm - - - - - NNE 26 39 14 21 - - -
10/07:30pm - - - - - NNE 22 32 12 17 - - -
10/07:00pm - - - - - NNE 24 37 13 20 - - -
10/06:30pm - - - - - NNE 26 39 14 21 - - -
10/06:00pm - - - - - NNE 24 41 13 22 - - -
10/05:30pm - - - - - NE 30 41 16 22 - - -
10/05:00pm - - - - - NE 28 39 15 21 - - -
10/04:30pm - - - - - NE 28 39 15 21 - - -
10/04:00pm - - - - - NE 28 41 15 22 - - -

Other Formats:

Comma delimited format used in spreadsheet applications
http://www.bom.gov.au/fwo/IDN60801/IDN60801.95752.axf

JavaScript Object Notation format (JSON) in row-major order
http://www.bom.gov.au/fwo/IDN60801/IDN60801.95752.json